Time;durP1;ratioP1;P1;durP2;ratioP2;P2;SDS_P1;SDS_P2;PMS_P1;PMS_P2;Temp;Humidity;BMP_temperature;BMP_pressure;BME280_temperature;BME280_humidity;BME280_pressure;Samples;Min_cycle;Max_cycle;Signal;HPM_P1;HPM_P2
2024/02/22 00:00:45;;;;;;;5.17;2.40;;;;;;;;;;4980206;28;82136;-54
2024/02/22 00:03:10;;;;;;;5.30;1.87;;;;;;;;;;4982232;28;82753;-55
2024/02/22 00:05:35;;;;;;;6.93;2.30;;;;;;;;;;4986405;28;81735;-52
2024/02/22 00:08:00;;;;;;;5.70;2.40;;;;;;;;;;4987498;28;82434;-55
2024/02/22 00:10:29;;;;;;;4.17;1.93;;;;;;;;;;4981550;28;83151;-55
2024/02/22 00:12:54;;;;;;;5.65;2.38;;;;;;;;;;4987650;28;82149;-55
2024/02/22 00:15:20;;;;;;;3.08;1.70;;;;;;;;;;4979287;28;82166;-53
2024/02/22 00:17:45;;;;;;;4.33;2.47;;;;;;;;;;4983123;28;81972;-52
2024/02/22 00:20:10;;;;;;;3.07;1.97;;;;;;;;;;4982073;28;82882;-56
2024/02/22 00:22:35;;;;;;;4.00;2.23;;;;;;;;;;4982010;28;83132;-55
2024/02/22 00:25:01;;;;;;;5.47;2.40;;;;;;;;;;4983770;28;82580;-54
2024/02/22 00:27:27;;;;;;;7.27;2.40;;;;;;;;;;4978863;28;81926;-56
2024/02/22 00:29:52;;;;;;;5.63;2.15;;;;;;;;;;4981657;28;82165;-53
2024/02/22 00:32:17;;;;;;;3.47;2.13;;;;;;;;;;4987699;28;81946;-56
2024/02/22 00:34:42;;;;;;;6.43;2.03;;;;;;;;;;4983205;28;82190;-55
2024/02/22 00:37:07;;;;;;;2.63;1.90;;;;;;;;;;4988097;28;81675;-54
2024/02/22 00:39:33;;;;;;;3.03;1.73;;;;;;;;;;4981528;28;82371;-56
2024/02/22 00:41:58;;;;;;;4.43;2.60;;;;;;;;;;4986660;28;82225;-53
2024/02/22 00:44:23;;;;;;;4.90;2.43;;;;;;;;;;4981483;28;83712;-53
2024/02/22 00:46:50;;;;;;;2.67;1.87;;;;;;;;;;4979470;28;81984;-51
2024/02/22 00:49:15;;;;;;;5.82;1.83;;;;;;;;;;4982788;28;82407;-55
2024/02/22 00:51:40;;;;;;;3.10;2.10;;;;;;;;;;4984988;28;82517;-56
2024/02/22 00:54:05;;;;;;;4.55;1.83;;;;;;;;;;4982265;28;82254;-51
2024/02/22 00:56:30;;;;;;;4.73;2.30;;;;;;;;;;4988435;28;82375;-55
2024/02/22 00:58:56;;;;;;;2.03;1.30;;;;;;;;;;4981262;28;82100;-56
2024/02/22 01:01:21;;;;;;;2.83;1.70;;;;;;;;;;4982248;28;82404;-54
2024/02/22 01:03:47;;;;;;;3.63;1.60;;;;;;;;;;4981843;28;82683;-51
2024/02/22 01:06:14;;;;;;;7.20;1.83;;;;;;;;;;4984782;28;82884;-54
2024/02/22 01:08:40;;;;;;;2.00;1.42;;;;;;;;;;4980917;28;83894;-51
2024/02/22 01:11:05;;;;;;;2.47;1.63;;;;;;;;;;4983421;28;81992;-55
2024/02/22 01:13:30;;;;;;;4.67;1.80;;;;;;;;;;4978257;28;83132;-52
2024/02/22 01:15:56;;;;;;;2.93;1.60;;;;;;;;;;4980602;28;82167;-53
2024/02/22 01:18:21;;;;;;;3.80;1.97;;;;;;;;;;4989670;28;82597;-54
2024/02/22 01:20:46;;;;;;;3.20;1.50;;;;;;;;;;4979206;28;84230;-54
2024/02/22 01:23:12;;;;;;;1.63;1.43;;;;;;;;;;4976487;28;84516;-54
2024/02/22 01:25:37;;;;;;;4.73;1.70;;;;;;;;;;4978285;28;81661;-55
2024/02/22 01:28:02;;;;;;;3.43;1.87;;;;;;;;;;4987525;28;81889;-53
2024/02/22 01:30:27;;;;;;;3.78;1.63;;;;;;;;;;4981558;28;82390;-53
2024/02/22 01:32:52;;;;;;;4.73;1.93;;;;;;;;;;4986918;28;83337;-53
2024/02/22 01:35:18;;;;;;;4.43;1.77;;;;;;;;;;4981463;28;82377;-53
2024/02/22 01:37:43;;;;;;;3.83;1.80;;;;;;;;;;4986460;28;82639;-54
2024/02/22 01:40:11;;;;;;;5.23;1.83;;;;;;;;;;4985639;28;82290;-54
2024/02/22 01:42:37;;;;;;;2.13;1.50;;;;;;;;;;4976551;28;82701;-53
2024/02/22 01:45:03;;;;;;;2.30;1.48;;;;;;;;;;4984447;28;83365;-55
2024/02/22 01:47:28;;;;;;;1.92;1.33;;;;;;;;;;4988239;28;82677;-53
2024/02/22 01:49:54;;;;;;;2.57;1.67;;;;;;;;;;4981365;28;81838;-54
2024/02/22 01:52:21;;;;;;;4.03;1.98;;;;;;;;;;4982437;28;82023;-55
2024/02/22 01:54:47;;;;;;;2.15;1.40;;;;;;;;;;4985491;28;83920;-52
2024/02/22 01:57:13;;;;;;;3.00;1.40;;;;;;;;;;4977825;28;83458;-54
2024/02/22 01:59:39;;;;;;;4.47;1.95;;;;;;;;;;4983677;28;81993;-55
2024/02/22 02:02:04;;;;;;;2.70;1.53;;;;;;;;;;4981329;28;83000;-54
2024/02/22 02:04:29;;;;;;;2.57;1.30;;;;;;;;;;4982570;28;82408;-51
2024/02/22 02:06:54;;;;;;;3.03;1.67;;;;;;;;;;4984702;28;82567;-53
2024/02/22 02:09:20;;;;;;;5.40;1.73;;;;;;;;;;4982688;28;81829;-54
2024/02/22 02:11:46;;;;;;;1.70;1.30;;;;;;;;;;4981823;28;81866;-52
2024/02/22 02:14:11;;;;;;;2.88;1.50;;;;;;;;;;4986598;28;82513;-54
2024/02/22 02:16:37;;;;;;;3.17;1.60;;;;;;;;;;4981412;28;82439;-54
2024/02/22 02:19:07;;;;;;;2.53;1.50;;;;;;;;;;4983498;28;82277;-53
2024/02/22 02:21:39;;;;;;;3.95;1.58;;;;;;;;;;4982769;28;83083;-53
2024/02/22 02:24:16;;;;;;;2.78;1.30;;;;;;;;;;4988277;28;81940;-56
2024/02/22 02:26:42;;;;;;;6.03;1.77;;;;;;;;;;4978339;28;82027;-56
2024/02/22 02:29:07;;;;;;;2.77;1.57;;;;;;;;;;4987561;28;82715;-56
2024/02/22 02:31:32;;;;;;;3.53;1.43;;;;;;;;;;4979448;28;83357;-56
2024/02/22 02:33:57;;;;;;;2.37;1.47;;;;;;;;;;4982913;28;82292;-53
2024/02/22 02:36:23;;;;;;;2.90;1.40;;;;;;;;;;4986232;28;82418;-55
2024/02/22 02:38:48;;;;;;;3.60;1.40;;;;;;;;;;4982383;28;82592;-53
2024/02/22 02:41:13;;;;;;;1.83;1.40;;;;;;;;;;4978733;28;82034;-53
2024/02/22 02:43:38;;;;;;;3.93;1.30;;;;;;;;;;4986138;28;81809;-55
2024/02/22 02:46:03;;;;;;;3.72;1.73;;;;;;;;;;4982591;28;84186;-53
2024/02/22 02:48:29;;;;;;;3.07;1.40;;;;;;;;;;4985506;28;82397;-53
2024/02/22 02:50:54;;;;;;;2.17;1.40;;;;;;;;;;4986052;28;82132;-54
2024/02/22 02:53:21;;;;;;;4.33;1.70;;;;;;;;;;4985140;28;82311;-55
2024/02/22 02:55:47;;;;;;;3.77;1.40;;;;;;;;;;4982145;28;82316;-54
2024/02/22 02:58:12;;;;;;;3.20;1.30;;;;;;;;;;4988316;28;82286;-52
2024/02/22 03:00:37;;;;;;;2.30;1.23;;;;;;;;;;4985995;28;83010;-55
2024/02/22 03:03:02;;;;;;;1.80;1.20;;;;;;;;;;4986354;28;81558;-54
2024/02/22 03:05:28;;;;;;;3.27;1.40;;;;;;;;;;4997352;28;81992;-55
2024/02/22 03:07:53;;;;;;;3.03;1.50;;;;;;;;;;4981767;28;84491;-55
2024/02/22 03:10:19;;;;;;;2.05;1.13;;;;;;;;;;4984312;28;83155;-52
2024/02/22 03:12:44;;;;;;;2.27;1.10;;;;;;;;;;4984546;28;83827;-54
2024/02/22 03:15:10;;;;;;;2.63;1.30;;;;;;;;;;4975257;28;82319;-53
2024/02/22 03:17:36;;;;;;;2.70;0.98;;;;;;;;;;4973596;28;81629;-55
2024/02/22 03:20:02;;;;;;;3.15;1.55;;;;;;;;;;4987496;28;82640;-52
2024/02/22 03:22:28;;;;;;;2.38;1.40;;;;;;;;;;4982364;28;82386;-54
2024/02/22 03:24:54;;;;;;;2.60;1.57;;;;;;;;;;4989079;28;81946;-53
2024/02/22 03:27:19;;;;;;;2.30;1.52;;;;;;;;;;4982652;28;82379;-55
2024/02/22 03:29:46;;;;;;;3.03;1.70;;;;;;;;;;4983530;28;82247;-56
2024/02/22 03:32:12;;;;;;;2.70;0.98;;;;;;;;;;4982136;28;82601;-54
2024/02/22 03:34:37;;;;;;;1.10;0.95;;;;;;;;;;4980097;28;83537;-52
2024/02/22 03:37:02;;;;;;;3.47;1.40;;;;;;;;;;4984472;28;82536;-54
2024/02/22 03:39:27;;;;;;;2.77;1.03;;;;;;;;;;4978962;28;82727;-55
2024/02/22 03:41:53;;;;;;;1.90;1.20;;;;;;;;;;4984161;28;82709;-52
2024/02/22 03:44:18;;;;;;;2.47;1.37;;;;;;;;;;4983110;28;82268;-53
2024/02/22 03:46:47;;;;;;;3.57;1.50;;;;;;;;;;4981915;28;82684;-55
2024/02/22 03:49:12;;;;;;;2.30;1.13;;;;;;;;;;4985434;28;82200;-53
2024/02/22 03:51:38;;;;;;;1.47;1.00;;;;;;;;;;4983183;28;83150;-52
2024/02/22 03:54:03;;;;;;;3.15;1.30;;;;;;;;;;4983182;28;81916;-51
2024/02/22 03:56:28;;;;;;;3.78;1.60;;;;;;;;;;4987502;28;82143;-52
2024/02/22 03:58:54;;;;;;;1.70;1.23;;;;;;;;;;4982717;28;82760;-52
2024/02/22 04:01:19;;;;;;;2.20;0.90;;;;;;;;;;4983607;28;82503;-55
2024/02/22 04:03:44;;;;;;;1.27;1.10;;;;;;;;;;4985311;28;82422;-52
2024/02/22 04:06:09;;;;;;;2.50;1.30;;;;;;;;;;4989044;28;83642;-55
2024/02/22 04:08:34;;;;;;;2.90;1.10;;;;;;;;;;4980652;28;81854;-52
2024/02/22 04:11:00;;;;;;;1.13;1.00;;;;;;;;;;4991294;28;82031;-55
2024/02/22 04:13:25;;;;;;;1.53;1.00;;;;;;;;;;4977716;28;83017;-55
2024/02/22 04:15:51;;;;;;;1.70;0.90;;;;;;;;;;4990375;28;81263;-50
2024/02/22 04:18:16;;;;;;;4.43;1.45;;;;;;;;;;4971460;28;82076;-53
2024/02/22 04:20:41;;;;;;;1.87;1.00;;;;;;;;;;4986811;28;81965;-53
2024/02/22 04:23:07;;;;;;;2.00;1.00;;;;;;;;;;4980624;28;84212;-52
2024/02/22 04:25:32;;;;;;;1.67;1.00;;;;;;;;;;4986267;28;82054;-51
2024/02/22 04:27:57;;;;;;;1.98;0.95;;;;;;;;;;4980778;28;82336;-53
2024/02/22 04:30:22;;;;;;;1.63;1.07;;;;;;;;;;4987940;28;81965;-55
2024/02/22 04:32:47;;;;;;;4.10;1.23;;;;;;;;;;4980693;28;82159;-52
2024/02/22 04:35:13;;;;;;;1.87;0.80;;;;;;;;;;4982760;28;81924;-54
2024/02/22 04:37:38;;;;;;;1.60;1.03;;;;;;;;;;4983238;28;82168;-55
2024/02/22 04:40:05;;;;;;;1.07;0.83;;;;;;;;;;4987076;28;81414;-54
2024/02/22 04:42:30;;;;;;;1.97;1.20;;;;;;;;;;4983824;28;82035;-52
2024/02/22 04:44:55;;;;;;;2.30;1.00;;;;;;;;;;4983973;28;82316;-54
2024/02/22 04:47:21;;;;;;;2.37;0.90;;;;;;;;;;4980640;28;83427;-56
2024/02/22 04:49:48;;;;;;;1.67;0.90;;;;;;;;;;4983555;28;83358;-53
2024/02/22 04:52:13;;;;;;;2.60;0.90;;;;;;;;;;4988665;28;81874;-51
2024/02/22 04:54:38;;;;;;;2.47;1.07;;;;;;;;;;4975923;28;83907;-52
2024/02/22 04:57:03;;;;;;;1.67;0.90;;;;;;;;;;4992398;28;82522;-54
2024/02/22 04:59:29;;;;;;;1.20;1.10;;;;;;;;;;4981080;28;81947;-52
2024/02/22 05:01:54;;;;;;;2.03;1.00;;;;;;;;;;4988721;28;82052;-55
2024/02/22 05:04:20;;;;;;;1.20;0.87;;;;;;;;;;4983822;28;82243;-54
2024/02/22 05:06:45;;;;;;;1.87;0.90;;;;;;;;;;4983048;28;82242;-54
2024/02/22 05:09:13;;;;;;;2.60;1.00;;;;;;;;;;4984457;28;83286;-53
2024/02/22 05:11:48;;;;;;;1.77;0.75;;;;;;;;;;4984206;28;85149;-54
2024/02/22 05:14:13;;;;;;;1.23;0.85;;;;;;;;;;4985045;28;82437;-52
2024/02/22 05:16:39;;;;;;;0.83;0.80;;;;;;;;;;4985970;28;82545;-55
2024/02/22 05:19:04;;;;;;;1.93;1.17;;;;;;;;;;4985885;28;81939;-55
2024/02/22 05:21:29;;;;;;;1.60;1.10;;;;;;;;;;4985840;28;81948;-52
2024/02/22 05:23:54;;;;;;;1.53;0.97;;;;;;;;;;4976216;28;82251;-55
2024/02/22 05:26:20;;;;;;;1.97;1.00;;;;;;;;;;4984420;28;81933;-52
2024/02/22 05:28:45;;;;;;;3.03;1.27;;;;;;;;;;4988876;28;81265;-54
2024/02/22 05:31:24;;;;;;;0.97;0.87;;;;;;;;;;4987816;28;82484;-56
2024/02/22 05:33:49;;;;;;;1.90;0.77;;;;;;;;;;4983504;28;82566;-54
2024/02/22 05:36:18;;;;;;;1.07;0.80;;;;;;;;;;4984259;28;83435;-56
2024/02/22 05:38:43;;;;;;;1.05;0.80;;;;;;;;;;4981928;28;82434;-54
2024/02/22 05:41:09;;;;;;;1.30;0.80;;;;;;;;;;4983853;28;84246;-51
2024/02/22 05:43:34;;;;;;;2.33;1.00;;;;;;;;;;4985529;28;82431;-55
2024/02/22 05:45:59;;;;;;;1.47;0.70;;;;;;;;;;4981187;28;82653;-54
2024/02/22 05:48:24;;;;;;;2.25;0.70;;;;;;;;;;4982757;28;81932;-55
2024/02/22 05:50:50;;;;;;;1.47;0.87;;;;;;;;;;4983325;28;83065;-56
2024/02/22 05:53:15;;;;;;;0.70;0.50;;;;;;;;;;4991296;28;81268;-57
2024/02/22 05:55:40;;;;;;;0.77;0.60;;;;;;;;;;4984012;28;82369;-55
2024/02/22 05:58:06;;;;;;;0.87;0.60;;;;;;;;;;4991688;28;82087;-54
2024/02/22 06:00:32;;;;;;;1.40;0.83;;;;;;;;;;4979962;28;82989;-57
2024/02/22 06:02:57;;;;;;;1.20;0.60;;;;;;;;;;4986215;28;83942;-55
2024/02/22 06:05:22;;;;;;;1.10;0.63;;;;;;;;;;4986490;28;82582;-56
2024/02/22 06:07:47;;;;;;;0.70;0.53;;;;;;;;;;4984605;28;83179;-58
2024/02/22 06:10:13;;;;;;;1.20;0.63;;;;;;;;;;4975464;28;83492;-54
2024/02/22 06:12:38;;;;;;;0.93;0.53;;;;;;;;;;4988039;28;83524;-58
2024/02/22 06:15:03;;;;;;;3.38;0.43;;;;;;;;;;4982157;28;81714;-57
2024/02/22 06:17:29;;;;;;;1.85;0.73;;;;;;;;;;4983255;28;82458;-57
2024/02/22 06:19:54;;;;;;;0.80;0.50;;;;;;;;;;4982311;28;81960;-57
2024/02/22 06:22:20;;;;;;;1.93;0.63;;;;;;;;;;4983357;28;82007;-56
2024/02/22 06:24:45;;;;;;;1.80;0.40;;;;;;;;;;4976682;28;83603;-58
2024/02/22 06:27:11;;;;;;;0.50;0.45;;;;;;;;;;4982751;28;82262;-55
2024/02/22 06:29:40;;;;;;;0.88;0.43;;;;;;;;;;4978812;28;82469;-57
2024/02/22 06:32:05;;;;;;;1.20;0.70;;;;;;;;;;4987094;28;82080;-56
2024/02/22 06:34:31;;;;;;;2.00;0.80;;;;;;;;;;4979368;28;82031;-58
2024/02/22 06:36:56;;;;;;;1.30;0.57;;;;;;;;;;4981280;28;82392;-56
2024/02/22 06:39:21;;;;;;;0.90;0.40;;;;;;;;;;4988805;28;81948;-57
2024/02/22 06:41:46;;;;;;;0.87;0.37;;;;;;;;;;4986187;28;82220;-53
2024/02/22 06:44:11;;;;;;;0.83;0.43;;;;;;;;;;4983776;28;82112;-56
2024/02/22 06:46:37;;;;;;;0.87;0.53;;;;;;;;;;4982185;28;81849;-56
2024/02/22 06:49:02;;;;;;;1.20;0.63;;;;;;;;;;4979749;28;84387;-54
2024/02/22 06:51:27;;;;;;;0.47;0.30;;;;;;;;;;4980009;28;83520;-54
2024/02/22 06:53:53;;;;;;;1.73;0.40;;;;;;;;;;4986308;28;82724;-54
2024/02/22 06:56:18;;;;;;;0.20;0.20;;;;;;;;;;4976884;28;82976;-54
2024/02/22 06:58:43;;;;;;;0.60;0.40;;;;;;;;;;4975664;28;83204;-56
2024/02/22 07:01:08;;;;;;;0.90;0.40;;;;;;;;;;4984795;28;82376;-57
2024/02/22 07:03:33;;;;;;;0.53;0.23;;;;;;;;;;4981130;28;82942;-56
2024/02/22 07:06:00;;;;;;;1.93;0.40;;;;;;;;;;4978823;28;83449;-56
2024/02/22 07:08:25;;;;;;;1.50;0.55;;;;;;;;;;4981421;28;82517;-56
2024/02/22 07:10:50;;;;;;;2.10;0.60;;;;;;;;;;4980340;28;82549;-57
2024/02/22 07:13:16;;;;;;;1.00;0.37;;;;;;;;;;4982516;28;83206;-56
2024/02/22 07:15:41;;;;;;;1.93;0.57;;;;;;;;;;4981395;28;82187;-54
2024/02/22 07:18:06;;;;;;;1.00;0.47;;;;;;;;;;4980212;28;83202;-55
2024/02/22 07:20:32;;;;;;;0.52;0.32;;;;;;;;;;4983655;28;82045;-56
2024/02/22 07:22:57;;;;;;;1.23;0.80;;;;;;;;;;4987343;28;82463;-59
2024/02/22 07:25:23;;;;;;;3.40;1.30;;;;;;;;;;4984068;28;82331;-54
2024/02/22 07:27:50;;;;;;;5.60;1.40;;;;;;;;;;4972504;28;82081;-59
2024/02/22 07:30:15;;;;;;;3.05;1.48;;;;;;;;;;4975269;28;81216;-59
2024/02/22 07:32:41;;;;;;;3.80;1.30;;;;;;;;;;4975436;28;81976;-61
2024/02/22 07:35:06;;;;;;;8.32;1.40;;;;;;;;;;4981985;28;82186;-59
2024/02/22 07:37:31;;;;;;;3.67;1.00;;;;;;;;;;4982303;28;83195;-60
2024/02/22 07:39:57;;;;;;;6.10;1.10;;;;;;;;;;4978839;28;82022;-59
2024/02/22 07:42:22;;;;;;;5.33;1.20;;;;;;;;;;4975893;28;82559;-59
2024/02/22 07:44:47;;;;;;;1.70;1.00;;;;;;;;;;4980472;28;82045;-59
2024/02/22 07:47:13;;;;;;;5.90;1.00;;;;;;;;;;4982012;28;82084;-59
2024/02/22 07:49:38;;;;;;;1.43;0.90;;;;;;;;;;4988444;28;82883;-57
2024/02/22 07:52:06;;;;;;;1.57;1.13;;;;;;;;;;4979168;28;83643;-60
2024/02/22 07:54:31;;;;;;;2.65;1.10;;;;;;;;;;4986150;28;82429;-54
2024/02/22 07:56:56;;;;;;;3.87;0.70;;;;;;;;;;4981548;28;83622;-58
2024/02/22 07:59:22;;;;;;;7.33;1.00;;;;;;;;;;4981957;28;82344;-59
2024/02/22 08:01:47;;;;;;;2.07;0.80;;;;;;;;;;4978813;28;82944;-58
2024/02/22 08:04:12;;;;;;;5.43;1.37;;;;;;;;;;4975449;28;82637;-59
2024/02/22 08:06:37;;;;;;;1.70;1.00;;;;;;;;;;4979083;28;82600;-59
2024/02/22 08:09:03;;;;;;;3.80;1.00;;;;;;;;;;4976884;28;82052;-59
2024/02/22 08:11:29;;;;;;;4.25;0.95;;;;;;;;;;4979099;28;83323;-59
2024/02/22 08:13:54;;;;;;;1.53;1.00;;;;;;;;;;4978933;28;82173;-59
2024/02/22 08:16:19;;;;;;;2.43;1.03;;;;;;;;;;4976823;28;81720;-59
2024/02/22 08:18:45;;;;;;;1.07;0.97;;;;;;;;;;4979304;28;81559;-58
2024/02/22 08:21:10;;;;;;;3.00;1.20;;;;;;;;;;4978896;28;83802;-59
2024/02/22 08:23:35;;;;;;;2.47;1.40;;;;;;;;;;4985327;28;82501;-59
2024/02/22 08:26:00;;;;;;;3.47;1.13;;;;;;;;;;4990458;28;82940;-59
2024/02/22 08:28:27;;;;;;;5.40;2.13;;;;;;;;;;4987084;28;82695;-59
2024/02/22 08:30:52;;;;;;;3.30;1.77;;;;;;;;;;4981106;28;82002;-59
2024/02/22 08:33:18;;;;;;;3.27;1.90;;;;;;;;;;4979790;28;82722;-59
2024/02/22 08:35:43;;;;;;;5.03;2.00;;;;;;;;;;4979218;28;83593;-59
2024/02/22 08:38:09;;;;;;;3.03;1.60;;;;;;;;;;4986190;28;81938;-59
2024/02/22 08:40:35;;;;;;;4.00;1.77;;;;;;;;;;4977382;28;82044;-59
2024/02/22 08:43:00;;;;;;;4.00;1.53;;;;;;;;;;4984095;28;82023;-59
2024/02/22 08:45:29;;;;;;;3.63;1.47;;;;;;;;;;4981410;28;82110;-59
2024/02/22 08:47:54;;;;;;;5.18;1.77;;;;;;;;;;4987593;28;82061;-59
2024/02/22 08:50:20;;;;;;;5.27;2.30;;;;;;;;;;4987877;28;83107;-59
2024/02/22 08:52:47;;;;;;;5.32;2.08;;;;;;;;;;4979754;28;82450;-59
2024/02/22 08:55:12;;;;;;;5.88;2.15;;;;;;;;;;4982599;28;83015;-59
2024/02/22 08:57:37;;;;;;;4.20;1.83;;;;;;;;;;4982824;28;81992;-59
2024/02/22 09:00:04;;;;;;;3.55;2.00;;;;;;;;;;4991317;28;82482;-59
2024/02/22 09:02:29;;;;;;;3.03;1.63;;;;;;;;;;4982251;28;81889;-59
2024/02/22 09:04:55;;;;;;;3.53;1.90;;;;;;;;;;4985100;28;82079;-58
2024/02/22 09:07:20;;;;;;;6.93;2.50;;;;;;;;;;4983324;28;82223;-57
2024/02/22 09:09:45;;;;;;;5.57;2.37;;;;;;;;;;4983452;28;82650;-57
2024/02/22 09:12:12;;;;;;;5.37;2.40;;;;;;;;;;4987207;28;82403;-58
2024/02/22 09:14:38;;;;;;;6.03;2.60;;;;;;;;;;4980375;28;83401;-57
2024/02/22 09:17:04;;;;;;;3.50;2.00;;;;;;;;;;4988156;28;82128;-57
2024/02/22 09:19:29;;;;;;;4.33;2.00;;;;;;;;;;4987378;28;82593;-58
2024/02/22 09:21:59;;;;;;;5.07;2.77;;;;;;;;;;4982221;28;84360;-58
2024/02/22 09:24:24;;;;;;;5.70;2.50;;;;;;;;;;4985289;28;82408;-58
2024/02/22 09:26:49;;;;;;;5.57;2.50;;;;;;;;;;4975239;28;81922;-58
2024/02/22 09:29:14;;;;;;;5.20;2.10;;;;;;;;;;4985944;28;82242;-58
2024/02/22 09:31:40;;;;;;;5.07;2.30;;;;;;;;;;4987295;28;81923;-59
2024/02/22 09:34:05;;;;;;;4.30;2.17;;;;;;;;;;4986089;28;81883;-57
2024/02/22 09:36:30;;;;;;;5.93;2.53;;;;;;;;;;4979050;28;81979;-58
2024/02/22 09:38:56;;;;;;;4.50;2.05;;;;;;;;;;4982201;28;83070;-59
2024/02/22 09:41:21;;;;;;;4.33;2.10;;;;;;;;;;4985210;28;82757;-58
2024/02/22 09:43:47;;;;;;;6.50;1.83;;;;;;;;;;4983202;28;83136;-58
2024/02/22 09:46:12;;;;;;;3.30;1.77;;;;;;;;;;4980821;28;82359;-56
2024/02/22 09:48:37;;;;;;;6.07;2.47;;;;;;;;;;4980656;28;82575;-58
2024/02/22 09:51:04;;;;;;;3.67;1.43;;;;;;;;;;4981931;28;83231;-58
2024/02/22 09:53:29;;;;;;;4.32;1.70;;;;;;;;;;4977010;28;81936;-57
2024/02/22 09:55:55;;;;;;;3.63;1.83;;;;;;;;;;4988046;28;81474;-58
2024/02/22 09:58:21;;;;;;;5.25;1.80;;;;;;;;;;4984847;28;82267;-59
2024/02/22 10:00:47;;;;;;;2.53;1.50;;;;;;;;;;4986207;28;82878;-58
2024/02/22 10:03:12;;;;;;;2.85;1.58;;;;;;;;;;4983364;28;83193;-58
2024/02/22 10:05:38;;;;;;;3.80;1.33;;;;;;;;;;4986789;28;83324;-56
2024/02/22 10:08:13;;;;;;;3.72;1.17;;;;;;;;;;4981170;28;82098;-57
2024/02/22 10:10:40;;;;;;;3.92;1.60;;;;;;;;;;4981878;28;81991;-59
2024/02/22 10:13:05;;;;;;;4.63;1.35;;;;;;;;;;4981525;28;82288;-59
2024/02/22 10:15:32;;;;;;;2.93;1.10;;;;;;;;;;4985181;28;82770;-60
2024/02/22 10:17:57;;;;;;;3.45;1.38;;;;;;;;;;4986569;28;82750;-59
2024/02/22 10:20:32;;;;;;;2.40;0.70;;;;;;;;;;4984151;28;81075;-59
2024/02/22 10:23:07;;;;;;;3.80;1.00;;;;;;;;;;4985232;28;81927;-60
2024/02/22 10:25:32;;;;;;;3.97;1.33;;;;;;;;;;4980415;28;82394;-58
2024/02/22 10:27:57;;;;;;;2.70;0.77;;;;;;;;;;4986562;28;83848;-59
2024/02/22 10:30:26;;;;;;;2.78;1.02;;;;;;;;;;4977882;28;81950;-59
2024/02/22 10:32:55;;;;;;;3.13;1.10;;;;;;;;;;4981377;28;82338;-59
2024/02/22 10:35:21;;;;;;;1.73;0.95;;;;;;;;;;4981283;28;82594;-59
2024/02/22 10:37:48;;;;;;;1.65;0.80;;;;;;;;;;4980352;28;82333;-59
2024/02/22 10:40:14;;;;;;;1.38;0.80;;;;;;;;;;4982472;28;83593;-60
2024/02/22 10:42:39;;;;;;;2.73;0.83;;;;;;;;;;4987284;28;82330;-56
2024/02/22 10:45:06;;;;;;;1.20;0.80;;;;;;;;;;4977728;28;81667;-58
2024/02/22 10:47:34;;;;;;;5.20;1.00;;;;;;;;;;4981885;28;83724;-58
2024/02/22 10:49:59;;;;;;;2.15;0.70;;;;;;;;;;4980931;28;82097;-58
2024/02/22 10:52:25;;;;;;;0.90;0.60;;;;;;;;;;4982122;28;83240;-57
2024/02/22 10:54:52;;;;;;;1.43;0.63;;;;;;;;;;4976524;28;82661;-57
2024/02/22 10:57:18;;;;;;;3.17;0.93;;;;;;;;;;4978474;28;82242;-57
2024/02/22 10:59:44;;;;;;;2.83;1.08;;;;;;;;;;4979622;28;82061;-58
2024/02/22 11:02:10;;;;;;;3.10;0.98;;;;;;;;;;4979395;28;81928;-57
2024/02/22 11:04:36;;;;;;;3.35;1.10;;;;;;;;;;4978743;28;82212;-57
2024/02/22 11:07:05;;;;;;;2.30;1.10;;;;;;;;;;4977557;28;83619;-55
2024/02/22 11:09:36;;;;;;;1.88;0.95;;;;;;;;;;4984065;28;81346;-55
2024/02/22 11:12:02;;;;;;;2.22;0.70;;;;;;;;;;4981109;28;81999;-56
2024/02/22 11:14:28;;;;;;;2.30;0.75;;;;;;;;;;4981645;28;83236;-56
2024/02/22 11:16:54;;;;;;;2.97;0.68;;;;;;;;;;4979940;28;83096;-57
2024/02/22 11:19:24;;;;;;;1.10;0.70;;;;;;;;;;4986438;28;83229;-56
2024/02/22 11:21:51;;;;;;;3.08;0.80;;;;;;;;;;4975795;28;82123;-55
2024/02/22 11:24:20;;;;;;;3.45;0.90;;;;;;;;;;4984855;28;82223;-57
2024/02/22 11:26:46;;;;;;;2.70;0.75;;;;;;;;;;4980794;28;82156;-56
2024/02/22 11:29:11;;;;;;;1.13;0.40;;;;;;;;;;4983127;28;82271;-57
2024/02/22 11:31:36;;;;;;;1.90;0.60;;;;;;;;;;4978937;28;81996;-57
2024/02/22 11:34:02;;;;;;;2.40;0.90;;;;;;;;;;4981042;28;82115;-55
2024/02/22 11:36:28;;;;;;;1.50;0.70;;;;;;;;;;4984823;28;82242;-57
2024/02/22 11:39:01;;;;;;;1.35;0.60;;;;;;;;;;4982547;28;82347;-58
2024/02/22 11:41:27;;;;;;;7.17;1.10;;;;;;;;;;4982574;28;83002;-57
2024/02/22 11:44:00;;;;;;;1.17;0.70;;;;;;;;;;4979558;28;82998;-59
2024/02/22 11:46:26;;;;;;;1.65;0.77;;;;;;;;;;4980658;28;82336;-57
2024/02/22 11:48:52;;;;;;;1.70;0.70;;;;;;;;;;4981910;28;82914;-57
2024/02/22 11:51:17;;;;;;;1.00;0.60;;;;;;;;;;4977884;28;82460;-59
2024/02/22 11:53:50;;;;;;;1.73;0.52;;;;;;;;;;4979823;28;83565;-57
2024/02/22 11:56:15;;;;;;;1.57;0.87;;;;;;;;;;4979275;28;82063;-59
2024/02/22 11:58:41;;;;;;;1.70;0.90;;;;;;;;;;4986332;28;81557;-60
2024/02/22 12:01:06;;;;;;;1.03;0.57;;;;;;;;;;4986507;28;83006;-57
2024/02/22 12:03:32;;;;;;;1.10;0.70;;;;;;;;;;4985210;28;83154;-58
2024/02/22 12:05:57;;;;;;;2.00;0.70;;;;;;;;;;4983534;28;83690;-58
2024/02/22 12:08:23;;;;;;;0.93;0.60;;;;;;;;;;4984905;28;82125;-59
2024/02/22 12:10:49;;;;;;;0.43;0.30;;;;;;;;;;4987792;28;82530;-59
2024/02/22 12:13:14;;;;;;;1.52;0.70;;;;;;;;;;4980956;28;83292;-60
2024/02/22 12:15:40;;;;;;;1.98;0.85;;;;;;;;;;4981098;28;81958;-58
2024/02/22 12:18:05;;;;;;;0.73;0.40;;;;;;;;;;4985143;28;82503;-60
2024/02/22 12:20:31;;;;;;;0.90;0.50;;;;;;;;;;4991759;28;82736;-60
2024/02/22 12:22:56;;;;;;;0.98;0.52;;;;;;;;;;4982125;28;81571;-58
2024/02/22 12:25:22;;;;;;;3.27;0.93;;;;;;;;;;4987515;28;82420;-59
2024/02/22 12:27:51;;;;;;;152.83;56.90;;;;;;;;;;4981741;28;82426;-58
2024/02/22 12:30:16;;;;;;;212.52;82.90;;;;;;;;;;4981735;28;83627;-56
2024/02/22 12:32:49;;;;;;;224.70;68.37;;;;;;;;;;4976134;28;83653;-60
2024/02/22 12:35:15;;;;;;;253.27;83.53;;;;;;;;;;4976914;28;83421;-58
2024/02/22 12:37:40;;;;;;;338.10;111.78;;;;;;;;;;4982576;28;83607;-59
2024/02/22 12:40:08;;;;;;;389.00;138.33;;;;;;;;;;4978402;28;86271;-55
2024/02/22 12:42:34;;;;;;;418.13;149.50;;;;;;;;;;4976242;28;86438;-58
2024/02/22 12:44:59;;;;;;;353.93;123.70;;;;;;;;;;4982254;28;85886;-56
2024/02/22 12:47:24;;;;;;;323.97;108.93;;;;;;;;;;4976782;28;85835;-59
2024/02/22 12:49:49;;;;;;;289.63;102.33;;;;;;;;;;4983185;28;86743;-55
2024/02/22 12:52:15;;;;;;;277.97;93.37;;;;;;;;;;4987954;28;86911;-60
2024/02/22 12:54:41;;;;;;;254.13;84.20;;;;;;;;;;4981858;28;86292;-59
2024/02/22 12:57:07;;;;;;;255.70;84.75;;;;;;;;;;4983275;28;84406;-60
2024/02/22 12:59:33;;;;;;;233.93;73.90;;;;;;;;;;4973123;28;83577;-59
2024/02/22 13:01:58;;;;;;;213.23;73.18;;;;;;;;;;4981084;28;83554;-59
2024/02/22 13:04:23;;;;;;;226.97;70.23;;;;;;;;;;4974258;28;83314;-60
2024/02/22 13:06:48;;;;;;;212.87;67.67;;;;;;;;;;4986536;28;83271;-59
2024/02/22 13:09:14;;;;;;;197.47;63.60;;;;;;;;;;4978363;28;83745;-58
2024/02/22 13:11:39;;;;;;;196.40;62.90;;;;;;;;;;4983632;28;83055;-59
2024/02/22 13:14:04;;;;;;;166.57;58.00;;;;;;;;;;4977541;28;83790;-58
2024/02/22 13:16:30;;;;;;;169.77;55.08;;;;;;;;;;4974112;28;83258;-59
2024/02/22 13:18:55;;;;;;;151.20;50.97;;;;;;;;;;4981983;28;84306;-59
2024/02/22 13:21:21;;;;;;;156.70;49.22;;;;;;;;;;4983511;28;83635;-59
2024/02/22 13:23:46;;;;;;;155.48;50.53;;;;;;;;;;4981681;28;84104;-59
2024/02/22 13:26:11;;;;;;;151.87;48.80;;;;;;;;;;4981487;28;83093;-58
2024/02/22 13:28:36;;;;;;;141.43;46.53;;;;;;;;;;4985298;28;83453;-58
2024/02/22 13:31:02;;;;;;;133.00;45.00;;;;;;;;;;4984007;28;83567;-58
2024/02/22 13:33:27;;;;;;;139.37;42.37;;;;;;;;;;4972554;28;84845;-59
2024/02/22 13:35:53;;;;;;;130.18;42.30;;;;;;;;;;4979075;28;85489;-58
2024/02/22 13:38:18;;;;;;;117.55;41.17;;;;;;;;;;4987057;28;83329;-59
2024/02/22 13:40:43;;;;;;;117.77;38.77;;;;;;;;;;4983434;28;83788;-59
2024/02/22 13:43:08;;;;;;;121.07;36.27;;;;;;;;;;4984727;28;83292;-59
2024/02/22 13:45:40;;;;;;;108.67;36.17;;;;;;;;;;4976513;28;83191;-59
2024/02/22 13:48:08;;;;;;;117.80;35.13;;;;;;;;;;4978675;28;83549;-59
2024/02/22 13:50:34;;;;;;;104.40;33.83;;;;;;;;;;4983217;28;83455;-57
2024/02/22 13:52:59;;;;;;;100.90;31.60;;;;;;;;;;4987674;28;83531;-57
2024/02/22 13:55:24;;;;;;;104.83;34.30;;;;;;;;;;4981120;28;83440;-57
2024/02/22 13:57:50;;;;;;;93.93;29.90;;;;;;;;;;4989477;28;83697;-56
2024/02/22 14:00:15;;;;;;;94.70;30.40;;;;;;;;;;4979695;28;83377;-57
2024/02/22 14:02:41;;;;;;;99.30;29.60;;;;;;;;;;4981470;28;84873;-57
2024/02/22 14:05:06;;;;;;;78.73;27.33;;;;;;;;;;4982807;28;83228;-57
2024/02/22 14:07:32;;;;;;;78.37;25.97;;;;;;;;;;4987131;28;83411;-56
2024/02/22 14:09:58;;;;;;;83.17;27.10;;;;;;;;;;4982408;28;84044;-56
2024/02/22 14:12:23;;;;;;;76.07;24.67;;;;;;;;;;4983725;28;85015;-57
2024/02/22 14:14:48;;;;;;;83.00;26.37;;;;;;;;;;4978601;28;83722;-57
2024/02/22 14:17:13;;;;;;;80.63;24.43;;;;;;;;;;4977628;28;83187;-58
2024/02/22 14:19:39;;;;;;;70.60;24.83;;;;;;;;;;4977142;28;85097;-57
2024/02/22 14:22:04;;;;;;;68.87;22.60;;;;;;;;;;4981423;28;83473;-58
2024/02/22 14:24:29;;;;;;;61.13;22.00;;;;;;;;;;4981689;28;83601;-58
2024/02/22 14:26:55;;;;;;;70.82;21.27;;;;;;;;;;4983178;28;83739;-58
2024/02/22 14:29:20;;;;;;;72.50;21.67;;;;;;;;;;4976801;28;83111;-58